Time;durP1;ratioP1;P1;durP2;ratioP2;P2;SDS_P1;SDS_P2;PMS_P1;PMS_P2;Temp;Humidity;BMP_temperature;BMP_pressure;BME280_temperature;BME280_humidity;BME280_pressure;Samples;Min_cycle;Max_cycle;Signal;HPM_P1;HPM_P2
2022/07/25 00:01:36;;;;;;;5.43;4.80;;;;;;;;;;5063638;28;20020;-75
2022/07/25 00:04:02;;;;;;;8.18;5.00;;;;;;;;;;5053423;28;20036;-75
2022/07/25 00:06:27;;;;;;;6.32;5.20;;;;;;;;;;5057280;28;20478;-75
2022/07/25 00:08:52;;;;;;;6.83;5.57;;;;;;;;;;5050982;28;20031;-75
2022/07/25 00:11:18;;;;;;;7.80;5.68;;;;;;;;;;5051162;28;20277;-75
2022/07/25 00:13:43;;;;;;;7.13;5.20;;;;;;;;;;5058191;28;20033;-76
2022/07/25 00:16:08;;;;;;;6.38;5.32;;;;;;;;;;5053952;28;20842;-76
2022/07/25 00:18:34;;;;;;;5.63;5.03;;;;;;;;;;5060787;28;20032;-75
2022/07/25 00:20:59;;;;;;;8.18;5.53;;;;;;;;;;5069147;28;20036;-76
2022/07/25 00:23:24;;;;;;;6.57;5.50;;;;;;;;;;5064119;28;20036;-75
2022/07/25 00:25:50;;;;;;;6.65;5.28;;;;;;;;;;5069568;28;20109;-76
2022/07/25 00:28:15;;;;;;;5.85;4.85;;;;;;;;;;5059908;28;20036;-75
2022/07/25 00:30:40;;;;;;;5.82;5.13;;;;;;;;;;5056448;28;20068;-76
2022/07/25 00:33:06;;;;;;;6.85;5.32;;;;;;;;;;5059685;28;20029;-75
2022/07/25 00:35:31;;;;;;;6.78;5.20;;;;;;;;;;5063587;28;20036;-76
2022/07/25 00:37:56;;;;;;;7.75;5.55;;;;;;;;;;5053271;28;20146;-76
2022/07/25 00:40:22;;;;;;;6.07;5.13;;;;;;;;;;5061718;28;20021;-76
2022/07/25 00:42:47;;;;;;;6.78;5.30;;;;;;;;;;5068966;28;20561;-74
2022/07/25 00:45:12;;;;;;;6.55;5.35;;;;;;;;;;5062264;28;20023;-75
2022/07/25 00:47:38;;;;;;;6.28;4.97;;;;;;;;;;5058228;28;20029;-75
2022/07/25 00:50:04;;;;;;;7.03;5.32;;;;;;;;;;5052674;28;20025;-76
2022/07/25 00:52:29;;;;;;;6.90;5.00;;;;;;;;;;5057966;28;20044;-76
2022/07/25 00:54:55;;;;;;;8.40;4.95;;;;;;;;;;5067823;28;20024;-76
2022/07/25 00:57:21;;;;;;;8.60;4.93;;;;;;;;;;5064367;28;20021;-76
2022/07/25 00:59:46;;;;;;;8.70;5.57;;;;;;;;;;5064555;28;20078;-75
2022/07/25 01:02:11;;;;;;;6.63;5.10;;;;;;;;;;5058395;28;20025;-75
2022/07/25 01:04:37;;;;;;;6.28;5.47;;;;;;;;;;5058025;28;20032;-75
2022/07/25 01:07:02;;;;;;;7.05;5.50;;;;;;;;;;5058875;28;20037;-76
2022/07/25 01:09:28;;;;;;;5.68;4.85;;;;;;;;;;5057708;28;20056;-76
2022/07/25 01:11:54;;;;;;;6.38;5.43;;;;;;;;;;5065102;28;20063;-74
2022/07/25 01:14:20;;;;;;;8.38;5.28;;;;;;;;;;5061728;28;20060;-76
2022/07/25 01:16:46;;;;;;;6.30;5.47;;;;;;;;;;5056905;28;20044;-77
2022/07/25 01:19:11;;;;;;;7.03;5.50;;;;;;;;;;5059001;28;20017;-76
2022/07/25 01:21:41;;;;;;;6.88;5.18;;;;;;;;;;5057642;28;20035;-75
2022/07/25 01:24:08;;;;;;;7.85;5.38;;;;;;;;;;5050059;28;20035;-76
2022/07/25 01:26:33;;;;;;;6.05;5.28;;;;;;;;;;5066654;28;20051;-76
2022/07/25 01:28:58;;;;;;;7.35;4.95;;;;;;;;;;5051649;28;20486;-76
2022/07/25 01:31:24;;;;;;;6.97;5.15;;;;;;;;;;5057897;28;20032;-75
2022/07/25 01:33:49;;;;;;;6.53;5.30;;;;;;;;;;5066909;28;20033;-75
2022/07/25 01:36:14;;;;;;;5.47;4.78;;;;;;;;;;5056653;28;20108;-76
2022/07/25 01:38:40;;;;;;;7.28;5.43;;;;;;;;;;5056409;28;20025;-75
2022/07/25 01:41:05;;;;;;;6.18;5.05;;;;;;;;;;5055313;28;20487;-76
2022/07/25 01:43:31;;;;;;;6.38;5.50;;;;;;;;;;5059861;28;20028;-76
2022/07/25 01:45:56;;;;;;;7.13;5.47;;;;;;;;;;5057730;28;20036;-76
2022/07/25 01:48:21;;;;;;;5.90;5.03;;;;;;;;;;5058229;28;20051;-75
2022/07/25 01:50:47;;;;;;;6.38;5.60;;;;;;;;;;5064075;28;20036;-75
2022/07/25 01:53:12;;;;;;;7.28;5.50;;;;;;;;;;5056750;28;20069;-76
2022/07/25 01:55:37;;;;;;;6.00;5.40;;;;;;;;;;5053991;28;20037;-75
2022/07/25 01:58:02;;;;;;;6.80;5.10;;;;;;;;;;5049010;28;20025;-75
2022/07/25 02:00:28;;;;;;;6.53;5.70;;;;;;;;;;5059339;28;20040;-75
2022/07/25 02:03:28;;;;;;;6.00;5.40;;;;;;;;;;5057082;28;20505;-75
2022/07/25 02:05:38;;;;;;;6.88;5.88;;;;;;;;;;5053505;28;20035;-76
2022/07/25 02:08:04;;;;;;;6.18;5.57;;;;;;;;;;5055080;28;20029;-75
2022/07/25 02:10:30;;;;;;;7.00;5.50;;;;;;;;;;5062157;28;20025;-75
2022/07/25 02:12:56;;;;;;;6.93;5.80;;;;;;;;;;5048568;28;20053;-75
2022/07/25 02:15:21;;;;;;;9.43;5.00;;;;;;;;;;5053726;28;20034;-75
2022/07/25 02:17:47;;;;;;;8.50;5.13;;;;;;;;;;5067263;28;20051;-75
2022/07/25 02:20:12;;;;;;;5.95;5.10;;;;;;;;;;5066298;28;20134;-76
2022/07/25 02:22:37;;;;;;;7.97;5.90;;;;;;;;;;5060914;28;20474;-75
2022/07/25 02:25:03;;;;;;;6.40;5.22;;;;;;;;;;5065801;28;20587;-75
2022/07/25 02:27:28;;;;;;;6.75;5.72;;;;;;;;;;5066786;28;20222;-75
2022/07/25 02:29:53;;;;;;;6.38;5.25;;;;;;;;;;5064550;28;20127;-76
2022/07/25 02:32:19;;;;;;;7.30;5.75;;;;;;;;;;5059106;28;20029;-75
2022/07/25 02:34:44;;;;;;;9.65;4.82;;;;;;;;;;5061974;28;20031;-75
2022/07/25 02:37:09;;;;;;;7.68;5.38;;;;;;;;;;5060033;28;20074;-74
2022/07/25 02:39:35;;;;;;;6.25;5.32;;;;;;;;;;5060398;28;20025;-75
2022/07/25 02:42:00;;;;;;;8.02;5.30;;;;;;;;;;5050072;28;20025;-76
2022/07/25 02:44:25;;;;;;;6.25;5.55;;;;;;;;;;5048216;28;20029;-74
2022/07/25 02:46:50;;;;;;;6.80;5.65;;;;;;;;;;5066773;28;20037;-75
2022/07/25 02:49:16;;;;;;;7.65;5.90;;;;;;;;;;5064250;28;20047;-75
2022/07/25 02:51:41;;;;;;;7.95;5.47;;;;;;;;;;5062858;28;20037;-75
2022/07/25 02:54:06;;;;;;;7.22;5.55;;;;;;;;;;5056884;28;20112;-74
2022/07/25 02:56:32;;;;;;;6.20;5.60;;;;;;;;;;5057843;28;20025;-75
2022/07/25 02:58:57;;;;;;;7.03;5.63;;;;;;;;;;5059832;28;20048;-75
2022/07/25 03:01:22;;;;;;;9.30;5.55;;;;;;;;;;5064292;28;20086;-73
2022/07/25 03:03:48;;;;;;;6.28;5.60;;;;;;;;;;5058131;28;20025;-74
2022/07/25 03:06:13;;;;;;;8.50;5.50;;;;;;;;;;5055750;28;20021;-75
2022/07/25 03:08:38;;;;;;;8.00;5.47;;;;;;;;;;5054120;28;20061;-75
2022/07/25 03:11:04;;;;;;;6.05;5.13;;;;;;;;;;5065047;28;20089;-74
2022/07/25 03:13:31;;;;;;;7.32;5.88;;;;;;;;;;5063831;28;20600;-74
2022/07/25 03:15:57;;;;;;;7.10;5.82;;;;;;;;;;5063247;28;20035;-74
2022/07/25 03:18:22;;;;;;;7.30;6.10;;;;;;;;;;5059303;28;20024;-75
2022/07/25 03:20:47;;;;;;;6.50;5.25;;;;;;;;;;5067686;28;20025;-75
2022/07/25 03:23:12;;;;;;;6.85;5.88;;;;;;;;;;5067140;28;20492;-74
2022/07/25 03:25:38;;;;;;;6.20;5.55;;;;;;;;;;5069806;28;20032;-74
2022/07/25 03:28:03;;;;;;;7.43;5.68;;;;;;;;;;5061800;28;20029;-74
2022/07/25 03:30:29;;;;;;;6.93;5.63;;;;;;;;;;5062998;28;20081;-74
2022/07/25 03:32:54;;;;;;;8.68;6.57;;;;;;;;;;5070294;28;20016;-74
2022/07/25 03:35:19;;;;;;;8.77;5.85;;;;;;;;;;5061467;28;20116;-74
2022/07/25 03:37:45;;;;;;;6.20;5.60;;;;;;;;;;5059700;28;20021;-76
2022/07/25 03:40:11;;;;;;;10.10;6.22;;;;;;;;;;5061764;28;20040;-75
2022/07/25 03:42:36;;;;;;;7.22;6.05;;;;;;;;;;5069607;28;20028;-75
2022/07/25 03:45:02;;;;;;;7.78;5.32;;;;;;;;;;5061311;28;20024;-75
2022/07/25 03:47:27;;;;;;;7.35;5.88;;;;;;;;;;5067566;28;20028;-75
2022/07/25 03:49:52;;;;;;;6.78;6.07;;;;;;;;;;5070047;28;20027;-76
2022/07/25 03:52:18;;;;;;;8.02;5.88;;;;;;;;;;5062899;28;20123;-75
2022/07/25 03:54:43;;;;;;;7.25;5.40;;;;;;;;;;5071188;28;20474;-75
2022/07/25 03:57:10;;;;;;;7.90;6.03;;;;;;;;;;5071244;28;20033;-73
2022/07/25 03:59:35;;;;;;;9.05;6.75;;;;;;;;;;5055977;28;20064;-75
2022/07/25 04:02:01;;;;;;;8.70;6.35;;;;;;;;;;5061954;28;20055;-75
2022/07/25 04:04:26;;;;;;;8.90;6.25;;;;;;;;;;5062375;28;20100;-75
2022/07/25 04:06:51;;;;;;;9.65;5.97;;;;;;;;;;5054080;28;20108;-75
2022/07/25 04:09:16;;;;;;;7.47;5.70;;;;;;;;;;5051726;28;20021;-75
2022/07/25 04:11:42;;;;;;;8.65;6.07;;;;;;;;;;5052778;28;20055;-74
2022/07/25 04:14:07;;;;;;;7.93;5.95;;;;;;;;;;5050677;28;20041;-73
2022/07/25 04:16:33;;;;;;;10.15;6.00;;;;;;;;;;5069919;28;20032;-75
2022/07/25 04:18:58;;;;;;;8.57;5.95;;;;;;;;;;5053973;28;20037;-75
2022/07/25 04:21:25;;;;;;;7.32;5.70;;;;;;;;;;5061264;28;20559;-75
2022/07/25 04:23:51;;;;;;;8.52;5.95;;;;;;;;;;5061112;28;20033;-75
2022/07/25 04:26:16;;;;;;;9.05;6.20;;;;;;;;;;5061025;28;20024;-76
2022/07/25 04:28:41;;;;;;;11.23;5.90;;;;;;;;;;5060387;28;20039;-75
2022/07/25 04:31:07;;;;;;;9.00;6.18;;;;;;;;;;5067424;28;20036;-75
2022/07/25 04:33:35;;;;;;;8.52;5.93;;;;;;;;;;5064034;28;20028;-75
2022/07/25 04:36:00;;;;;;;9.15;6.28;;;;;;;;;;5069265;28;20036;-75
2022/07/25 04:38:25;;;;;;;9.80;6.10;;;;;;;;;;5064848;28;20040;-73
2022/07/25 04:40:50;;;;;;;8.20;6.03;;;;;;;;;;5066172;28;20145;-74
2022/07/25 04:43:16;;;;;;;7.97;6.05;;;;;;;;;;5049995;28;20028;-73
2022/07/25 04:45:41;;;;;;;8.45;5.90;;;;;;;;;;5060779;28;20032;-75
2022/07/25 04:48:06;;;;;;;7.78;6.25;;;;;;;;;;5056160;28;20029;-74
2022/07/25 04:50:31;;;;;;;9.02;5.97;;;;;;;;;;5068492;28;20222;-75
2022/07/25 04:52:57;;;;;;;6.82;6.10;;;;;;;;;;5061727;28;20024;-75
2022/07/25 04:55:23;;;;;;;9.50;6.22;;;;;;;;;;5069910;28;20028;-75
2022/07/25 04:57:48;;;;;;;10.10;7.00;;;;;;;;;;5069892;28;20029;-75
2022/07/25 05:00:14;;;;;;;9.43;6.38;;;;;;;;;;5066967;28;20028;-75
2022/07/25 05:02:40;;;;;;;7.65;6.85;;;;;;;;;;5060764;28;20544;-76
2022/07/25 05:05:07;;;;;;;12.50;6.90;;;;;;;;;;5050740;28;20028;-75
2022/07/25 05:07:33;;;;;;;9.15;6.47;;;;;;;;;;5068867;28;20502;-74
2022/07/25 05:09:58;;;;;;;10.35;6.32;;;;;;;;;;5068621;28;20035;-75
2022/07/25 05:12:23;;;;;;;8.73;6.63;;;;;;;;;;5061098;28;20028;-75
2022/07/25 05:14:48;;;;;;;8.05;6.43;;;;;;;;;;5069472;28;20067;-73
2022/07/25 05:17:14;;;;;;;7.15;6.15;;;;;;;;;;5067026;28;20021;-75
2022/07/25 05:19:39;;;;;;;11.00;6.25;;;;;;;;;;5052968;28;20029;-73
2022/07/25 05:22:05;;;;;;;10.95;6.30;;;;;;;;;;5056600;28;20051;-75
2022/07/25 05:24:34;;;;;;;10.43;6.57;;;;;;;;;;5062992;28;20120;-74
2022/07/25 05:26:59;;;;;;;8.98;6.70;;;;;;;;;;5049279;28;20574;-76
2022/07/25 05:29:26;;;;;;;9.65;6.65;;;;;;;;;;5057487;28;20186;-74
2022/07/25 05:31:51;;;;;;;12.18;7.28;;;;;;;;;;5053111;28;20655;-75
2022/07/25 05:34:16;;;;;;;11.50;6.65;;;;;;;;;;5068885;28;20036;-76
2022/07/25 05:36:42;;;;;;;11.45;6.78;;;;;;;;;;5068425;28;20032;-74
2022/07/25 05:39:07;;;;;;;9.02;6.65;;;;;;;;;;5063601;28;20445;-75
2022/07/25 05:41:32;;;;;;;12.27;7.50;;;;;;;;;;5061509;28;20036;-76
2022/07/25 05:43:58;;;;;;;9.32;6.47;;;;;;;;;;5049523;28;20031;-75
2022/07/25 05:46:23;;;;;;;9.85;6.57;;;;;;;;;;5052064;28;20035;-75
2022/07/25 05:48:48;;;;;;;12.63;6.93;;;;;;;;;;5064470;28;20036;-76
2022/07/25 05:51:14;;;;;;;8.70;7.22;;;;;;;;;;5063496;28;20409;-76
2022/07/25 05:53:39;;;;;;;7.65;6.72;;;;;;;;;;5063548;28;20028;-76
2022/07/25 05:56:04;;;;;;;10.43;6.97;;;;;;;;;;5058425;28;20031;-75
2022/07/25 05:58:30;;;;;;;8.55;6.55;;;;;;;;;;5055169;28;20417;-74
2022/07/25 06:00:56;;;;;;;9.18;6.55;;;;;;;;;;5060682;28;20028;-74
2022/07/25 06:03:21;;;;;;;9.15;6.60;;;;;;;;;;5060409;28;20119;-74
2022/07/25 06:05:46;;;;;;;9.00;6.80;;;;;;;;;;5057366;28;20091;-74
2022/07/25 06:08:13;;;;;;;7.40;6.28;;;;;;;;;;5062366;28;20035;-74
2022/07/25 06:10:39;;;;;;;6.63;5.20;;;;;;;;;;5047769;28;20108;-75
2022/07/25 06:13:04;;;;;;;12.32;6.72;;;;;;;;;;5047072;28;20059;-74
2022/07/25 06:15:30;;;;;;;7.75;6.22;;;;;;;;;;5057577;28;20036;-74
2022/07/25 06:17:55;;;;;;;11.75;6.07;;;;;;;;;;5058128;28;20020;-75
2022/07/25 06:20:20;;;;;;;7.82;6.10;;;;;;;;;;5060198;28;20020;-74
2022/07/25 06:22:46;;;;;;;11.38;6.60;;;;;;;;;;5063098;28;20197;-75
2022/07/25 06:25:11;;;;;;;15.73;7.60;;;;;;;;;;5055812;28;20103;-75
2022/07/25 06:27:37;;;;;;;9.77;6.05;;;;;;;;;;5047914;28;20108;-75
2022/07/25 06:30:04;;;;;;;8.23;6.07;;;;;;;;;;5057789;28;20034;-74
2022/07/25 06:32:30;;;;;;;7.65;6.00;;;;;;;;;;5054012;28;20433;-75
2022/07/25 06:34:55;;;;;;;7.50;5.88;;;;;;;;;;5055244;28;20045;-75
2022/07/25 06:37:20;;;;;;;6.33;5.73;;;;;;;;;;5055754;28;20039;-75
2022/07/25 06:39:45;;;;;;;9.27;5.83;;;;;;;;;;5047138;28;20839;-75
2022/07/25 06:42:11;;;;;;;6.90;6.20;;;;;;;;;;5047624;28;20306;-75
2022/07/25 06:44:36;;;;;;;10.57;5.93;;;;;;;;;;5047181;28;20478;-75
2022/07/25 06:47:02;;;;;;;6.88;5.38;;;;;;;;;;5049608;28;20104;-75
2022/07/25 06:49:27;;;;;;;6.72;5.50;;;;;;;;;;5060271;28;20032;-75
2022/07/25 06:51:53;;;;;;;9.73;5.80;;;;;;;;;;5060267;28;20475;-75
2022/07/25 06:54:18;;;;;;;7.88;5.88;;;;;;;;;;5050272;28;20063;-75
2022/07/25 06:56:44;;;;;;;7.75;5.65;;;;;;;;;;5051693;28;20032;-75
2022/07/25 06:59:09;;;;;;;6.35;5.53;;;;;;;;;;5051114;28;20058;-75
2022/07/25 07:01:35;;;;;;;8.93;5.82;;;;;;;;;;5056226;28;20115;-76
2022/07/25 07:04:01;;;;;;;7.05;5.28;;;;;;;;;;5061983;28;20074;-77
2022/07/25 07:06:26;;;;;;;8.10;5.80;;;;;;;;;;5070208;28;20024;-76
2022/07/25 07:08:51;;;;;;;7.05;5.88;;;;;;;;;;5058992;28;20055;-77
2022/07/25 07:11:16;;;;;;;6.77;5.53;;;;;;;;;;5057487;28;20079;-76
2022/07/25 07:13:42;;;;;;;9.48;5.50;;;;;;;;;;5051102;28;20260;-75
2022/07/25 07:16:07;;;;;;;5.78;5.10;;;;;;;;;;5050920;28;20439;-76
2022/07/25 07:18:33;;;;;;;6.88;5.38;;;;;;;;;;5054480;28;20033;-75
2022/07/25 07:20:58;;;;;;;7.07;5.90;;;;;;;;;;5062251;28;20043;-75
2022/07/25 07:23:24;;;;;;;7.35;5.80;;;;;;;;;;5069159;28;20547;-75
2022/07/25 07:25:49;;;;;;;10.52;5.90;;;;;;;;;;5066738;28;20528;-75
2022/07/25 07:28:15;;;;;;;7.60;5.63;;;;;;;;;;5058472;28;20115;-76
2022/07/25 07:30:40;;;;;;;7.65;5.70;;;;;;;;;;5050359;28;20024;-77
2022/07/25 07:33:05;;;;;;;8.98;5.50;;;;;;;;;;5049568;28;20021;-76
2022/07/25 07:35:31;;;;;;;9.20;5.80;;;;;;;;;;5049148;28;20071;-77
2022/07/25 07:37:56;;;;;;;10.00;5.85;;;;;;;;;;5050070;28;20808;-76
2022/07/25 07:40:22;;;;;;;14.05;5.63;;;;;;;;;;5058312;28;20047;-76
2022/07/25 07:42:49;;;;;;;9.00;5.40;;;;;;;;;;5053223;28;20134;-76
2022/07/25 07:45:18;;;;;;;7.28;5.90;;;;;;;;;;5055725;28;20414;-75
2022/07/25 07:47:46;;;;;;;9.57;5.72;;;;;;;;;;5061127;28;20035;-76
2022/07/25 07:50:14;;;;;;;10.75;6.07;;;;;;;;;;5049630;28;20028;-76
2022/07/25 07:52:39;;;;;;;10.68;5.28;;;;;;;;;;5049823;28;20029;-76
2022/07/25 07:57:49;;;;;;;10.38;5.47;;;;;;;;;;5053517;28;20292;-75
2022/07/25 08:00:16;;;;;;;7.53;5.53;;;;;;;;;;5064161;28;20422;-77
2022/07/25 08:02:48;;;;;;;8.43;5.13;;;;;;;;;;5058208;28;20082;-76
2022/07/25 08:05:21;;;;;;;9.13;5.50;;;;;;;;;;5053745;28;20106;-75
2022/07/25 08:07:47;;;;;;;11.85;5.47;;;;;;;;;;5057806;28;20239;-77
2022/07/25 08:10:12;;;;;;;8.80;5.53;;;;;;;;;;5049302;28;20060;-76
2022/07/25 08:12:40;;;;;;;11.30;5.67;;;;;;;;;;5049277;28;20490;-76
2022/07/25 08:15:07;;;;;;;12.48;5.63;;;;;;;;;;5048781;28;20264;-76
2022/07/25 08:17:32;;;;;;;18.92;5.90;;;;;;;;;;5054209;28;20078;-76
2022/07/25 08:19:57;;;;;;;11.37;5.67;;;;;;;;;;5059491;28;20024;-76
2022/07/25 08:22:23;;;;;;;9.60;5.73;;;;;;;;;;5061377;28;20024;-76
2022/07/25 08:24:48;;;;;;;10.73;5.40;;;;;;;;;;5062465;28;20281;-77
2022/07/25 08:27:14;;;;;;;12.57;5.35;;;;;;;;;;5062724;28;20020;-76
2022/07/25 08:29:39;;;;;;;10.30;4.97;;;;;;;;;;5048924;28;20025;-76
2022/07/25 08:32:05;;;;;;;6.13;4.57;;;;;;;;;;5058452;28;20330;-76
2022/07/25 08:34:30;;;;;;;9.00;5.30;;;;;;;;;;5059390;28;20024;-75
2022/07/25 08:36:55;;;;;;;12.23;4.67;;;;;;;;;;5069313;28;20024;-76
2022/07/25 08:39:20;;;;;;;10.77;4.70;;;;;;;;;;5069032;28;20040;-76
2022/07/25 08:41:46;;;;;;;6.93;4.57;;;;;;;;;;5069243;28;20038;-76
2022/07/25 08:44:14;;;;;;;9.10;5.03;;;;;;;;;;5067787;28;20082;-76
2022/07/25 08:46:40;;;;;;;7.55;4.70;;;;;;;;;;5066345;28;20039;-76
2022/07/25 08:49:06;;;;;;;5.03;4.07;;;;;;;;;;5057860;28;20067;-75
2022/07/25 08:51:32;;;;;;;7.50;4.57;;;;;;;;;;5049171;28;20501;-71
2022/07/25 08:53:58;;;;;;;6.35;4.53;;;;;;;;;;5048242;28;20462;-76
2022/07/25 08:56:23;;;;;;;5.90;4.65;;;;;;;;;;5064572;28;20390;-76
2022/07/25 08:58:49;;;;;;;6.80;4.30;;;;;;;;;;5065230;28;20389;-75
2022/07/25 09:01:15;;;;;;;8.95;4.88;;;;;;;;;;5060345;28;20281;-75
2022/07/25 09:03:41;;;;;;;6.70;4.30;;;;;;;;;;5066298;28;20077;-73
2022/07/25 09:06:21;;;;;;;5.32;4.30;;;;;;;;;;5059384;28;20031;-72
2022/07/25 09:08:54;;;;;;;5.35;4.32;;;;;;;;;;5067985;28;20035;-74
2022/07/25 09:11:31;;;;;;;6.10;4.15;;;;;;;;;;5067771;28;20052;-77
2022/07/25 09:13:59;;;;;;;8.15;4.30;;;;;;;;;;5067924;28;20043;-69
2022/07/25 09:16:33;;;;;;;4.57;4.18;;;;;;;;;;5067861;28;20047;-70
2022/07/25 09:19:20;;;;;;;4.88;4.45;;;;;;;;;;5066519;28;20031;-70
2022/07/25 09:22:04;;;;;;;5.43;4.47;;;;;;;;;;5060279;28;20024;-70
2022/07/25 09:24:31;;;;;;;5.93;4.13;;;;;;;;;;5065851;28;20024;-75
2022/07/25 09:26:58;;;;;;;6.10;4.35;;;;;;;;;;5059049;28;20025;-73
2022/07/25 09:29:29;;;;;;;5.10;4.32;;;;;;;;;;5047404;28;20063;-76
2022/07/25 09:31:55;;;;;;;6.18;3.88;;;;;;;;;;5059049;28;20160;-76
2022/07/25 09:34:41;;;;;;;5.72;4.18;;;;;;;;;;5067506;28;20111;-75
2022/07/25 09:37:08;;;;;;;7.25;4.13;;;;;;;;;;5064745;28;20040;-76
2022/07/25 09:39:34;;;;;;;6.03;4.15;;;;;;;;;;5047403;28;20100;-74
2022/07/25 09:41:59;;;;;;;5.40;4.60;;;;;;;;;;5051586;28;20123;-74
2022/07/25 09:44:31;;;;;;;9.18;4.80;;;;;;;;;;5065640;28;20024;-75
2022/07/25 09:46:59;;;;;;;5.68;4.50;;;;;;;;;;5066295;28;20028;-75
2022/07/25 09:49:25;;;;;;;5.72;4.47;;;;;;;;;;5066353;28;20512;-74
2022/07/25 09:51:51;;;;;;;5.47;4.35;;;;;;;;;;5060122;28;20029;-76
2022/07/25 09:54:18;;;;;;;6.07;4.28;;;;;;;;;;5065617;28;20119;-71
2022/07/25 09:56:43;;;;;;;5.55;4.47;;;;;;;;;;5066172;28;20067;-70
2022/07/25 09:59:08;;;;;;;7.43;4.30;;;;;;;;;;5048615;28;20052;-73
2022/07/25 10:01:38;;;;;;;5.00;4.03;;;;;;;;;;5047980;28;20024;-71
2022/07/25 10:04:21;;;;;;;6.78;4.63;;;;;;;;;;5051172;28;20258;-73
2022/07/25 10:07:08;;;;;;;6.28;4.05;;;;;;;;;;5059829;28;20104;-72
2022/07/25 10:09:43;;;;;;;4.93;4.35;;;;;;;;;;5067213;28;20028;-73
2022/07/25 10:12:10;;;;;;;5.45;4.68;;;;;;;;;;5059249;28;20037;-72
2022/07/25 10:14:37;;;;;;;5.30;4.60;;;;;;;;;;5055075;28;20102;-70
2022/07/25 10:17:03;;;;;;;6.32;4.43;;;;;;;;;;5058897;28;20815;-74
2022/07/25 10:19:54;;;;;;;5.68;4.50;;;;;;;;;;5061667;28;20111;-70
2022/07/25 10:22:20;;;;;;;5.75;4.43;;;;;;;;;;5045330;28;20049;-73
2022/07/25 10:24:47;;;;;;;4.97;4.38;;;;;;;;;;5047027;28;20025;-71
2022/07/25 10:27:19;;;;;;;6.13;4.22;;;;;;;;;;5048070;28;20017;-71
2022/07/25 10:29:51;;;;;;;4.55;4.15;;;;;;;;;;5058252;28;20032;-74
2022/07/25 10:32:16;;;;;;;4.80;4.30;;;;;;;;;;5057585;28;20099;-74
2022/07/25 10:34:51;;;;;;;5.40;4.90;;;;;;;;;;5059423;28;20154;-72
2022/07/25 10:37:20;;;;;;;5.30;4.75;;;;;;;;;;5067122;28;20032;-76
2022/07/25 10:39:46;;;;;;;6.10;4.53;;;;;;;;;;5066645;28;20031;-77
2022/07/25 10:42:16;;;;;;;8.05;4.90;;;;;;;;;;5067551;28;20067;-74
2022/07/25 10:44:44;;;;;;;12.40;5.35;;;;;;;;;;5068100;28;20095;-75
2022/07/25 10:47:12;;;;;;;10.98;5.35;;;;;;;;;;5067996;28;20429;-74
2022/07/25 10:49:40;;;;;;;9.45;5.20;;;;;;;;;;5066552;28;20107;-74
2022/07/25 10:52:06;;;;;;;8.23;5.10;;;;;;;;;;5067800;28;20516;-74
2022/07/25 10:54:37;;;;;;;5.22;4.72;;;;;;;;;;5067768;28;20393;-75
2022/07/25 10:57:04;;;;;;;7.23;5.07;;;;;;;;;;5067965;28;20389;-75
2022/07/25 10:59:38;;;;;;;5.35;4.82;;;;;;;;;;5067512;28;20306;-75
2022/07/25 11:02:06;;;;;;;5.50;4.95;;;;;;;;;;5065981;28;20031;-75
2022/07/25 11:04:32;;;;;;;6.88;5.05;;;;;;;;;;5066979;28;20067;-75
2022/07/25 11:07:08;;;;;;;8.30;5.10;;;;;;;;;;5066346;28;20040;-74
2022/07/25 11:09:33;;;;;;;6.43;5.00;;;;;;;;;;5067664;28;20052;-75
2022/07/25 11:11:59;;;;;;;6.88;5.40;;;;;;;;;;5066839;28;20458;-75
2022/07/25 11:14:29;;;;;;;8.80;5.22;;;;;;;;;;5067630;28;20027;-76
2022/07/25 11:16:55;;;;;;;7.15;5.47;;;;;;;;;;5066537;28;20028;-75
2022/07/25 11:19:28;;;;;;;8.38;5.55;;;;;;;;;;5067370;28;20420;-75
2022/07/25 11:21:56;;;;;;;5.75;4.75;;;;;;;;;;5067864;28;20249;-76
2022/07/25 11:24:42;;;;;;;6.10;4.97;;;;;;;;;;5067346;28;20036;-76
2022/07/25 11:27:09;;;;;;;7.88;5.40;;;;;;;;;;5067485;28;20103;-76
2022/07/25 11:29:36;;;;;;;9.18;5.32;;;;;;;;;;5061549;28;20525;-76
2022/07/25 11:32:08;;;;;;;10.02;5.47;;;;;;;;;;5065192;28;20110;-76
2022/07/25 11:34:36;;;;;;;7.32;5.47;;;;;;;;;;5065912;28;20619;-75
2022/07/25 11:37:04;;;;;;;7.47;5.72;;;;;;;;;;5055734;28;20114;-75
2022/07/25 11:39:35;;;;;;;7.90;5.95;;;;;;;;;;5053751;28;20048;-76
2022/07/25 11:42:09;;;;;;;10.50;5.30;;;;;;;;;;5061639;28;20044;-75
2022/07/25 11:44:38;;;;;;;5.60;4.35;;;;;;;;;;5064468;28;20025;-75
2022/07/25 11:47:06;;;;;;;5.43;4.25;;;;;;;;;;5069966;28;20024;-74
2022/07/25 11:49:43;;;;;;;5.78;4.60;;;;;;;;;;5069265;28;20071;-73
2022/07/25 11:52:17;;;;;;;9.85;4.45;;;;;;;;;;5069954;28;20436;-76
2022/07/25 11:54:59;;;;;;;5.25;4.57;;;;;;;;;;5058988;28;20130;-72
2022/07/25 11:57:27;;;;;;;5.95;4.90;;;;;;;;;;5050825;28;20098;-71
2022/07/25 11:59:54;;;;;;;6.60;4.95;;;;;;;;;;5048744;28;20025;-72
2022/07/25 12:02:30;;;;;;;6.95;4.68;;;;;;;;;;5061050;28;20521;-75
2022/07/25 12:05:01;;;;;;;7.80;4.80;;;;;;;;;;5058564;28;20421;-70
2022/07/25 12:07:38;;;;;;;6.90;4.70;;;;;;;;;;5062695;28;20032;-75
2022/07/25 12:10:06;;;;;;;9.02;4.95;;;;;;;;;;5066631;28;20021;-74
2022/07/25 12:12:47;;;;;;;7.60;4.47;;;;;;;;;;5068315;28;20485;-75
2022/07/25 12:15:13;;;;;;;7.87;4.50;;;;;;;;;;5069383;28;20032;-72
2022/07/25 12:17:39;;;;;;;5.30;4.50;;;;;;;;;;5054430;28;20106;-74
2022/07/25 12:20:11;;;;;;;6.35;4.13;;;;;;;;;;5056514;28;20486;-72
2022/07/25 12:22:37;;;;;;;6.07;5.25;;;;;;;;;;5049712;28;20486;-72
2022/07/25 12:25:02;;;;;;;9.03;4.97;;;;;;;;;;5049807;28;20037;-72
2022/07/25 12:27:28;;;;;;;6.10;4.70;;;;;;;;;;5049804;28;20341;-72
2022/07/25 12:29:53;;;;;;;5.88;4.95;;;;;;;;;;5048218;28;20386;-75
2022/07/25 12:32:18;;;;;;;6.30;5.15;;;;;;;;;;5060212;28;20028;-73
2022/07/25 12:34:45;;;;;;;6.13;4.60;;;;;;;;;;5061814;28;20483;-72
2022/07/25 12:37:10;;;;;;;7.65;4.50;;;;;;;;;;5068429;28;20253;-71
2022/07/25 12:39:35;;;;;;;5.82;4.50;;;;;;;;;;5067156;28;20036;-73
2022/07/25 12:42:00;;;;;;;5.45;4.45;;;;;;;;;;5057805;28;20037;-72
2022/07/25 12:44:26;;;;;;;7.43;4.60;;;;;;;;;;5054355;28;20059;-74
2022/07/25 12:46:51;;;;;;;6.43;4.20;;;;;;;;;;5049813;28;20268;-76
2022/07/25 12:49:17;;;;;;;5.30;3.95;;;;;;;;;;5064316;28;20349;-71
2022/07/25 12:51:42;;;;;;;7.30;4.60;;;;;;;;;;5063506;28;20082;-75
2022/07/25 12:54:07;;;;;;;5.20;4.53;;;;;;;;;;5068407;28;20028;-71
2022/07/25 12:56:33;;;;;;;6.90;4.80;;;;;;;;;;5067681;28;20021;-70
2022/07/25 12:58:58;;;;;;;5.90;4.38;;;;;;;;;;5063116;28;20269;-76
2022/07/25 13:01:23;;;;;;;10.35;4.88;;;;;;;;;;5066221;28;20032;-73
2022/07/25 13:03:49;;;;;;;6.75;4.40;;;;;;;;;;5066052;28;20105;-74
2022/07/25 13:06:14;;;;;;;8.70;4.60;;;;;;;;;;5061915;28;20115;-75
2022/07/25 13:08:40;;;;;;;7.38;4.70;;;;;;;;;;5058212;28;20747;-71
2022/07/25 13:11:05;;;;;;;7.28;5.38;;;;;;;;;;5059422;28;20040;-73
2022/07/25 13:13:30;;;;;;;6.40;4.82;;;;;;;;;;5068088;28;20028;-70
2022/07/25 13:15:56;;;;;;;7.47;5.20;;;;;;;;;;5065039;28;20376;-72
2022/07/25 13:18:21;;;;;;;6.87;5.00;;;;;;;;;;5046577;28;20285;-72
2022/07/25 13:20:46;;;;;;;6.32;4.68;;;;;;;;;;5053939;28;20285;-69
2022/07/25 13:23:12;;;;;;;6.57;4.00;;;;;;;;;;5063226;28;20154;-73
2022/07/25 13:25:37;;;;;;;4.97;3.95;;;;;;;;;;5063007;28;20029;-72
2022/07/25 13:28:03;;;;;;;7.97;4.32;;;;;;;;;;5055920;28;20032;-71
2022/07/25 13:30:29;;;;;;;6.75;3.55;;;;;;;;;;5064764;28;20027;-71
2022/07/25 13:32:54;;;;;;;5.68;4.05;;;;;;;;;;5065699;28;20035;-72
2022/07/25 13:35:19;;;;;;;6.50;3.70;;;;;;;;;;5054100;28;20028;-70
2022/07/25 13:37:45;;;;;;;6.63;3.75;;;;;;;;;;5056403;28;20086;-74
2022/07/25 13:40:10;;;;;;;6.22;4.00;;;;;;;;;;5063197;28;20028;-74
2022/07/25 13:42:35;;;;;;;5.80;3.97;;;;;;;;;;5063143;28;20031;-72
2022/07/25 13:45:01;;;;;;;6.25;4.25;;;;;;;;;;5036411;28;20095;-71
2022/07/25 13:47:26;;;;;;;8.33;4.10;;;;;;;;;;5064224;28;20028;-73
2022/07/25 13:49:51;;;;;;;4.72;4.13;;;;;;;;;;5063300;28;20652;-72
2022/07/25 13:52:17;;;;;;;5.72;3.90;;;;;;;;;;5063061;28;20406;-72
2022/07/25 13:54:42;;;;;;;8.27;4.60;;;;;;;;;;5055218;28;20028;-70
2022/07/25 13:57:08;;;;;;;5.43;3.87;;;;;;;;;;5055770;28;20027;-73
2022/07/25 13:59:33;;;;;;;7.65;4.47;;;;;;;;;;5064070;28;20277;-70
2022/07/25 14:01:59;;;;;;;6.15;4.50;;;;;;;;;;5058584;28;20159;-71
2022/07/25 14:04:24;;;;;;;10.05;4.38;;;;;;;;;;5060340;28;20056;-75
2022/07/25 14:06:50;;;;;;;8.73;3.92;;;;;;;;;;5059659;28;20054;-72
2022/07/25 14:09:18;;;;;;;3.78;3.45;;;;;;;;;;5060119;28;20397;-73
2022/07/25 14:11:43;;;;;;;4.80;3.88;;;;;;;;;;5045440;28;20096;-72
2022/07/25 14:14:09;;;;;;;3.20;3.00;;;;;;;;;;5044588;28;20100;-71
2022/07/25 14:16:34;;;;;;;4.68;3.30;;;;;;;;;;5044983;28;20064;-71
2022/07/25 14:19:00;;;;;;;7.38;2.97;;;;;;;;;;5052700;28;20024;-70
2022/07/25 14:21:26;;;;;;;4.18;2.80;;;;;;;;;;5055855;28;20027;-72
2022/07/25 14:23:51;;;;;;;6.10;2.63;;;;;;;;;;5055581;28;20033;-73
2022/07/25 14:26:17;;;;;;;6.90;2.78;;;;;;;;;;5044418;28;20289;-76
2022/07/25 14:28:42;;;;;;;4.40;2.92;;;;;;;;;;5045939;28;20028;-72
2022/07/25 14:31:07;;;;;;;4.00;2.60;;;;;;;;;;5073989;22;20044;-69
2022/07/25 14:33:38;;;;;;;5.35;2.65;;;;;;;;;;5045878;28;20029;-71
2022/07/25 14:36:04;;;;;;;3.63;2.60;;;;;;;;;;5055222;28;20033;-69
2022/07/25 14:38:30;;;;;;;5.60;2.80;;;;;;;;;;5062650;28;20051;-73
2022/07/25 14:40:55;;;;;;;4.90;2.47;;;;;;;;;;5062867;28;20490;-70